createdAt,value
2022-09-22T00:01:18.098Z,2.10
2022-09-22T00:03:49.261Z,2.50
2022-09-22T00:06:18.134Z,2.47
2022-09-22T00:08:47.235Z,2.50
2022-09-22T00:11:18.482Z,2.40
2022-09-22T00:13:50.228Z,2.43
2022-09-22T00:16:19.120Z,3.13
2022-09-22T00:18:48.231Z,2.50
2022-09-22T00:21:17.267Z,2.43
2022-09-22T00:23:45.025Z,2.40
2022-09-22T00:26:15.543Z,2.20
2022-09-22T00:28:45.154Z,2.50
2022-09-22T00:31:14.598Z,1.97
2022-09-22T00:33:42.577Z,2.30
2022-09-22T00:36:11.953Z,2.33
2022-09-22T00:38:40.578Z,2.10
2022-09-22T00:41:10.913Z,2.60
2022-09-22T00:43:39.638Z,2.73
2022-09-22T00:46:14.804Z,2.20
2022-09-22T00:48:45.732Z,2.37
2022-09-22T00:51:17.453Z,2.23
2022-09-22T00:53:45.218Z,2.20
2022-09-22T00:56:16.134Z,2.57
2022-09-22T00:58:46.670Z,2.40
2022-09-22T01:01:15.181Z,2.13
2022-09-22T01:03:43.849Z,2.40
2022-09-22T01:06:17.331Z,2.90
2022-09-22T01:08:45.437Z,2.30
2022-09-22T01:11:14.187Z,2.60
2022-09-22T01:13:48.900Z,2.53
2022-09-22T01:16:27.640Z,2.50
2022-09-22T01:19:10.163Z,2.00
2022-09-22T01:21:43.313Z,2.40
2022-09-22T01:24:38.612Z,2.13
2022-09-22T01:28:00.236Z,2.50
2022-09-22T01:30:33.685Z,2.00
2022-09-22T01:33:13.381Z,2.10
2022-09-22T01:35:49.443Z,2.10
2022-09-22T01:38:24.682Z,2.20
2022-09-22T01:40:56.717Z,2.33
2022-09-22T01:43:33.895Z,2.37
2022-09-22T01:46:06.093Z,2.30
2022-09-22T01:48:34.958Z,2.13
2022-09-22T01:51:07.103Z,2.30
2022-09-22T01:53:38.121Z,2.40
2022-09-22T01:56:09.072Z,2.30
2022-09-22T01:58:40.270Z,1.90
2022-09-22T02:01:14.597Z,2.70
2022-09-22T02:03:44.466Z,2.03
2022-09-22T02:06:14.667Z,2.90
2022-09-22T02:08:45.512Z,2.20
2022-09-22T02:11:15.746Z,2.53
2022-09-22T02:13:44.104Z,2.67
2022-09-22T02:16:14.586Z,2.60
2022-09-22T02:18:44.960Z,2.10
2022-09-22T02:21:13.275Z,2.40
2022-09-22T02:23:40.904Z,2.27
2022-09-22T02:26:09.612Z,2.53
2022-09-22T02:28:39.624Z,2.40
2022-09-22T02:31:19.983Z,2.20
2022-09-22T02:33:50.184Z,2.53
2022-09-22T02:36:30.126Z,2.50
2022-09-22T02:39:01.563Z,2.70
2022-09-22T02:41:33.426Z,2.20
2022-09-22T02:44:04.605Z,2.37
2022-09-22T02:46:37.427Z,2.40
2022-09-22T02:49:09.489Z,2.60
2022-09-22T02:51:37.186Z,2.20
2022-09-22T02:54:06.352Z,2.40
2022-09-22T02:56:34.117Z,2.53
2022-09-22T02:59:01.712Z,2.60
2022-09-22T03:01:29.286Z,2.60
2022-09-22T03:03:56.906Z,2.70
2022-09-22T03:06:25.857Z,2.33
2022-09-22T03:08:53.421Z,2.47
2022-09-22T03:11:20.969Z,2.67
2022-09-22T03:13:48.544Z,2.87
2022-09-22T03:16:16.180Z,2.70
2022-09-22T03:18:43.757Z,2.13
2022-09-22T03:21:11.286Z,3.03
2022-09-22T03:23:40.179Z,2.67
2022-09-22T03:26:07.759Z,2.30
2022-09-22T03:28:35.395Z,2.70
2022-09-22T03:31:02.991Z,2.80
2022-09-22T03:33:31.049Z,2.50
2022-09-22T03:35:58.576Z,3.00
2022-09-22T03:38:26.168Z,2.93
2022-09-22T03:40:55.150Z,3.07
2022-09-22T03:43:22.739Z,3.10
2022-09-22T03:45:57.026Z,3.03
2022-09-22T03:48:24.593Z,3.17
2022-09-22T03:50:52.168Z,3.07
2022-09-22T03:53:19.737Z,3.83
2022-09-22T03:55:47.281Z,2.60
2022-09-22T03:58:16.407Z,3.20
2022-09-22T04:00:44.072Z,2.80
2022-09-22T04:03:12.138Z,3.47
2022-09-22T04:05:39.614Z,2.77
2022-09-22T04:08:07.234Z,2.93
2022-09-22T04:10:35.342Z,3.20
2022-09-22T04:13:02.892Z,3.07
2022-09-22T04:15:31.756Z,3.10
2022-09-22T04:17:59.425Z,3.43
2022-09-22T04:20:27.504Z,3.00
2022-09-22T04:22:55.052Z,3.30
2022-09-22T04:25:22.657Z,3.20
2022-09-22T04:27:50.280Z,2.63
2022-09-22T04:30:17.996Z,3.17
2022-09-22T04:32:46.954Z,3.17
2022-09-22T04:35:14.479Z,3.17
2022-09-22T04:37:42.969Z,3.30
2022-09-22T04:40:12.092Z,3.27
2022-09-22T04:42:39.916Z,3.17
2022-09-22T04:45:08.538Z,3.67
2022-09-22T04:47:36.094Z,3.50
2022-09-22T04:50:05.295Z,3.17
2022-09-22T04:52:32.832Z,3.57
2022-09-22T04:55:00.411Z,3.20
2022-09-22T04:57:28.004Z,3.20
2022-09-22T04:59:55.568Z,3.20
2022-09-22T05:02:23.090Z,3.63
2022-09-22T05:04:50.721Z,3.27
2022-09-22T05:07:19.687Z,3.40
2022-09-22T05:09:47.607Z,3.27
2022-09-22T05:12:15.227Z,3.43
2022-09-22T05:14:43.220Z,3.80
2022-09-22T05:17:10.768Z,3.43
2022-09-22T05:19:38.569Z,3.37
2022-09-22T05:22:06.168Z,3.83
2022-09-22T05:24:35.113Z,3.60
2022-09-22T05:27:02.680Z,4.00
2022-09-22T05:29:30.339Z,3.77
2022-09-22T05:31:58.092Z,3.77
2022-09-22T05:34:25.779Z,3.60
2022-09-22T05:36:53.294Z,3.77
2022-09-22T05:39:21.788Z,3.80
2022-09-22T05:41:50.772Z,3.40
2022-09-22T05:44:18.381Z,4.00
2022-09-22T05:46:46.759Z,3.93
2022-09-22T05:49:14.348Z,4.23
2022-09-22T05:51:42.056Z,4.60
2022-09-22T05:54:10.758Z,4.23
2022-09-22T05:56:38.328Z,4.53
2022-09-22T05:59:07.187Z,3.87
2022-09-22T06:01:34.727Z,3.40
2022-09-22T06:04:02.637Z,3.77
2022-09-22T06:06:33.307Z,3.43
2022-09-22T06:09:01.367Z,3.13
2022-09-22T06:11:28.963Z,3.90
2022-09-22T06:13:56.584Z,3.17
2022-09-22T06:16:25.581Z,3.17
2022-09-22T06:18:53.211Z,3.13
2022-09-22T06:21:20.806Z,3.30
2022-09-22T06:23:48.353Z,3.20
2022-09-22T06:26:15.907Z,3.10
2022-09-22T06:28:43.433Z,3.47
2022-09-22T06:31:12.048Z,3.20
2022-09-22T06:33:48.418Z,3.73
2022-09-22T06:36:30.323Z,3.27
2022-09-22T06:38:58.536Z,3.27
2022-09-22T06:41:26.455Z,3.70
2022-09-22T06:43:55.945Z,4.70
2022-09-22T06:46:26.075Z,3.10
2022-09-22T06:48:57.169Z,3.10
2022-09-22T06:51:26.609Z,2.77
2022-09-22T06:53:54.865Z,3.30
2022-09-22T06:56:23.515Z,3.57
2022-09-22T06:59:08.832Z,3.40
2022-09-22T07:01:37.978Z,3.10
2022-09-22T07:04:07.066Z,3.40
2022-09-22T07:06:35.801Z,2.83
2022-09-22T07:09:03.613Z,3.77
2022-09-22T07:11:31.245Z,3.93
2022-09-22T07:13:59.547Z,3.20
2022-09-22T07:16:27.776Z,3.23
2022-09-22T07:18:57.440Z,2.90
2022-09-22T07:21:30.282Z,3.00
2022-09-22T07:23:58.874Z,2.83
2022-09-22T07:26:28.912Z,3.10
2022-09-22T07:28:58.379Z,2.87
2022-09-22T07:31:28.997Z,3.03
2022-09-22T07:34:00.074Z,2.90
2022-09-22T07:36:30.641Z,2.80
2022-09-22T07:39:02.995Z,3.20
2022-09-22T07:41:31.799Z,2.83
2022-09-22T07:44:21.586Z,2.87
2022-09-22T07:46:49.291Z,2.90
2022-09-22T07:49:17.595Z,2.43
2022-09-22T07:51:46.576Z,2.53
2022-09-22T07:54:14.233Z,2.83
2022-09-22T07:56:43.921Z,2.97
2022-09-22T07:59:13.014Z,3.10
2022-09-22T08:01:44.158Z,2.53
2022-09-22T08:04:15.532Z,2.67
2022-09-22T08:06:43.637Z,2.80
2022-09-22T08:09:13.574Z,2.83
2022-09-22T08:11:48.396Z,3.20
2022-09-22T08:14:18.285Z,2.40
2022-09-22T08:16:46.787Z,2.83
2022-09-22T08:19:14.901Z,2.40
2022-09-22T08:21:48.869Z,2.60
2022-09-22T08:24:21.824Z,2.50
2022-09-22T08:26:51.889Z,2.67
2022-09-22T08:29:19.415Z,2.67
2022-09-22T08:31:47.383Z,3.20
2022-09-22T08:34:16.236Z,3.20
2022-09-22T08:36:47.258Z,2.70
2022-09-22T08:39:15.679Z,2.93
2022-09-22T08:41:55.247Z,3.53
2022-09-22T08:44:26.021Z,2.87
2022-09-22T08:46:54.611Z,2.60
2022-09-22T08:49:43.622Z,2.70
2022-09-22T08:52:17.972Z,2.73
2022-09-22T08:54:47.408Z,2.90
2022-09-22T08:57:35.378Z,2.83
2022-09-22T09:00:06.626Z,2.90
2022-09-22T09:02:42.237Z,2.67
2022-09-22T09:05:46.944Z,2.83
2022-09-22T09:08:34.969Z,2.30
2022-09-22T09:11:10.739Z,2.43
2022-09-22T09:13:51.454Z,2.27
2022-09-22T09:16:34.255Z,2.23
2022-09-22T09:19:07.336Z,2.00
2022-09-22T09:21:38.595Z,2.10
2022-09-22T09:27:00.592Z,2.37
2022-09-22T09:29:34.096Z,2.43
2022-09-22T09:32:02.640Z,1.90
2022-09-22T09:34:30.593Z,2.10
2022-09-22T09:37:06.296Z,2.47
2022-09-22T09:39:35.156Z,2.00
2022-09-22T09:42:04.721Z,1.90
2022-09-22T09:44:38.925Z,2.50
2022-09-22T09:47:15.304Z,2.37
2022-09-22T09:49:42.835Z,2.23
2022-09-22T09:52:12.783Z,1.40
2022-09-22T09:54:41.636Z,1.70
2022-09-22T09:57:11.271Z,2.10
2022-09-22T09:59:59.040Z,1.50
2022-09-22T10:02:28.468Z,1.90
2022-09-22T10:04:57.687Z,1.50
2022-09-22T10:07:27.334Z,1.67
2022-09-22T10:09:56.176Z,1.50
2022-09-22T10:12:28.587Z,1.63
2022-09-22T10:14:59.145Z,2.23
2022-09-22T10:17:30.355Z,1.70
2022-09-22T10:20:20.260Z,1.50
2022-09-22T10:22:48.031Z,1.67
2022-09-22T10:25:27.194Z,1.77
2022-09-22T10:28:02.906Z,1.50
2022-09-22T10:30:33.156Z,1.50
2022-09-22T10:33:12.702Z,1.60
2022-09-22T10:35:42.561Z,1.50
2022-09-22T10:38:16.337Z,1.73
2022-09-22T10:40:47.415Z,1.57
2022-09-22T10:43:22.812Z,1.47
2022-09-22T10:46:02.232Z,1.27
2022-09-22T10:48:34.759Z,1.30
2022-09-22T10:51:07.412Z,1.33
2022-09-22T10:53:40.340Z,1.20
2022-09-22T10:56:15.146Z,1.10
2022-09-22T10:58:56.005Z,1.30
2022-09-22T11:01:37.096Z,1.30
2022-09-22T11:04:26.819Z,1.00
2022-09-22T11:07:24.189Z,1.27
2022-09-22T11:10:13.272Z,1.50
2022-09-22T11:12:48.035Z,1.30
2022-09-22T11:15:27.407Z,1.27
2022-09-22T11:18:10.416Z,1.50
2022-09-22T11:20:38.683Z,1.50
2022-09-22T11:23:35.331Z,1.30
2022-09-22T11:26:21.406Z,1.30
2022-09-22T11:28:57.461Z,1.30
2022-09-22T11:31:36.883Z,1.13
2022-09-22T11:34:31.267Z,1.50
2022-09-22T11:37:24.944Z,1.50
2022-09-22T11:40:00.316Z,1.27
2022-09-22T11:42:32.804Z,1.63
2022-09-22T11:45:08.646Z,1.40
2022-09-22T11:47:49.618Z,1.00
2022-09-22T11:50:28.412Z,1.50
2022-09-22T11:53:09.426Z,1.10
2022-09-22T11:55:42.738Z,1.30
2022-09-22T11:58:14.956Z,1.37
2022-09-22T12:00:47.101Z,1.37
2022-09-22T12:03:19.024Z,1.10
2022-09-22T12:05:50.190Z,1.23
2022-09-22T12:08:21.003Z,1.10
2022-09-22T12:10:51.261Z,1.57
2022-09-22T12:13:21.305Z,1.37
2022-09-22T12:16:00.203Z,1.03
2022-09-22T12:18:33.065Z,1.50
2022-09-22T12:21:06.542Z,1.20
2022-09-22T12:23:39.280Z,1.10
2022-09-22T12:26:09.085Z,1.57
2022-09-22T12:28:41.167Z,1.20
2022-09-22T12:31:12.729Z,1.30
2022-09-22T12:33:47.447Z,1.30
2022-09-22T12:36:17.516Z,1.20
2022-09-22T12:38:45.655Z,1.50
2022-09-22T12:41:17.721Z,1.27
2022-09-22T12:43:46.199Z,1.30
2022-09-22T12:46:22.040Z,1.10
2022-09-22T12:48:49.697Z,1.20
2022-09-22T12:51:33.305Z,1.30
2022-09-22T12:54:28.652Z,1.60
2022-09-22T12:56:57.793Z,1.30
2022-09-22T12:59:56.765Z,1.27
2022-09-22T13:02:29.564Z,1.33
2022-09-22T13:05:35.425Z,1.30
2022-09-22T13:08:04.819Z,1.30
2022-09-22T13:10:42.222Z,1.20
2022-09-22T13:13:23.499Z,1.57
2022-09-22T13:15:59.384Z,1.40
2022-09-22T13:18:31.606Z,1.40
2022-09-22T13:20:59.767Z,1.17
2022-09-22T13:23:31.074Z,1.20
2022-09-22T13:26:08.541Z,1.20
2022-09-22T13:28:36.798Z,1.63
2022-09-22T13:31:10.743Z,1.23
2022-09-22T13:33:38.819Z,1.80
2022-09-22T13:36:08.257Z,1.70
2022-09-22T13:38:42.886Z,1.50
2022-09-22T13:41:14.094Z,1.70
2022-09-22T13:43:44.588Z,1.40
2022-09-22T13:46:20.636Z,1.40
2022-09-22T13:48:48.756Z,1.10
2022-09-22T13:51:16.893Z,1.30
2022-09-22T13:53:50.223Z,1.33
2022-09-22T13:56:29.187Z,1.50
2022-09-22T13:58:59.340Z,1.40
2022-09-22T14:01:28.793Z,1.47
2022-09-22T14:03:56.862Z,1.40
2022-09-22T14:06:27.055Z,1.30
2022-09-22T14:08:56.427Z,1.70
2022-09-22T14:11:25.556Z,1.20
2022-09-22T14:14:01.154Z,1.50
2022-09-22T14:16:32.010Z,1.53
2022-09-22T14:19:03.019Z,1.20
2022-09-22T14:21:30.847Z,1.40
2022-09-22T14:24:00.742Z,1.03
2022-09-22T14:26:34.241Z,1.20
2022-09-22T14:29:14.687Z,1.47
2022-09-22T14:31:44.194Z,1.30
2022-09-22T14:34:17.770Z,1.57
2022-09-22T14:36:46.289Z,0.90
2022-09-22T14:39:18.460Z,1.30
2022-09-22T14:41:52.060Z,1.33
2022-09-22T14:44:26.450Z,1.53
2022-09-22T14:46:56.548Z,1.27
2022-09-22T14:49:37.523Z,1.30
2022-09-22T14:52:06.120Z,1.13
2022-09-22T14:54:35.981Z,1.43
2022-09-22T14:57:07.709Z,1.70
2022-09-22T14:59:55.650Z,1.70
2022-09-22T15:02:33.802Z,1.50
2022-09-22T15:05:03.558Z,1.40
2022-09-22T15:07:32.963Z,1.30
2022-09-22T15:10:03.949Z,1.67
2022-09-22T15:12:39.956Z,1.20
2022-09-22T15:15:20.511Z,1.47
2022-09-22T15:18:06.304Z,1.20
2022-09-22T15:20:38.617Z,1.20
2022-09-22T15:23:10.953Z,1.37
2022-09-22T15:25:39.917Z,1.50
2022-09-22T15:28:12.233Z,1.30
2022-09-22T15:30:40.200Z,1.70
2022-09-22T15:33:11.754Z,1.00
2022-09-22T15:35:39.284Z,1.40
2022-09-22T15:38:14.979Z,1.43
2022-09-22T15:40:44.497Z,1.27
2022-09-22T15:43:13.742Z,1.30
2022-09-22T15:45:47.537Z,1.50
2022-09-22T15:48:26.210Z,1.33
2022-09-22T15:50:53.839Z,1.40
2022-09-22T15:53:22.547Z,1.37
2022-09-22T15:55:51.876Z,1.90
2022-09-22T15:58:19.857Z,2.80
2022-09-22T16:00:48.272Z,1.40
2022-09-22T16:03:22.276Z,1.40
2022-09-22T16:05:52.817Z,1.60
2022-09-22T16:08:20.629Z,1.60
2022-09-22T16:10:48.418Z,2.80
2022-09-22T16:13:18.125Z,2.73
2022-09-22T16:15:45.681Z,1.80
2022-09-22T16:18:13.273Z,1.50
2022-09-22T16:20:40.771Z,1.50
2022-09-22T16:23:08.259Z,1.33
2022-09-22T16:25:35.961Z,2.17
2022-09-22T16:28:04.704Z,2.70
2022-09-22T16:30:33.770Z,2.97
2022-09-22T16:33:01.760Z,2.90
2022-09-22T16:35:30.184Z,6.13
2022-09-22T16:37:57.692Z,5.43
2022-09-22T16:40:26.147Z,4.10
2022-09-22T16:42:53.708Z,3.00
2022-09-22T16:45:41.284Z,1.80
2022-09-22T16:48:10.311Z,1.70
2022-09-22T16:50:37.890Z,1.50
2022-09-22T16:53:07.592Z,1.50
2022-09-22T16:55:37.391Z,1.37
2022-09-22T16:58:08.276Z,1.70
2022-09-22T17:00:35.843Z,1.60
2022-09-22T17:03:03.532Z,1.60
2022-09-22T17:05:34.271Z,1.50
2022-09-22T17:08:06.511Z,1.40
2022-09-22T17:10:35.781Z,1.20
2022-09-22T17:13:04.865Z,1.30
2022-09-22T17:15:36.211Z,1.27
2022-09-22T17:18:04.499Z,1.47
2022-09-22T17:20:33.474Z,1.80
2022-09-22T17:23:01.007Z,3.23
2022-09-22T17:25:29.054Z,2.80
2022-09-22T17:27:57.615Z,2.03
2022-09-22T17:30:25.266Z,1.20
2022-09-22T17:32:53.452Z,1.40
2022-09-22T17:35:21.112Z,2.47
2022-09-22T17:37:52.168Z,1.83
2022-09-22T17:40:20.034Z,1.40
2022-09-22T17:42:48.168Z,4.70
2022-09-22T17:45:15.977Z,6.40
2022-09-22T17:48:01.278Z,5.27
2022-09-22T17:50:46.483Z,4.90
2022-09-22T17:53:33.177Z,2.27
2022-09-22T17:56:05.026Z,1.50
2022-09-22T17:58:32.781Z,1.40
2022-09-22T18:01:00.563Z,1.37
2022-09-22T18:03:28.989Z,1.20
2022-09-22T18:05:57.400Z,1.17
2022-09-22T18:08:26.352Z,1.50
2022-09-22T18:10:54.332Z,1.33
2022-09-22T18:13:21.878Z,1.40
2022-09-22T18:15:50.015Z,1.73
2022-09-22T18:18:17.616Z,1.60
2022-09-22T18:20:45.177Z,1.50
2022-09-22T18:23:12.734Z,1.57
2022-09-22T18:25:41.647Z,1.30
2022-09-22T18:28:09.244Z,1.30
2022-09-22T18:30:39.983Z,1.50
2022-09-22T18:33:07.638Z,1.17
2022-09-22T18:35:35.181Z,1.30
2022-09-22T18:38:03.198Z,1.63
2022-09-22T18:40:31.738Z,1.50
2022-09-22T18:43:00.704Z,1.40
2022-09-22T18:45:28.694Z,1.40
2022-09-22T18:47:59.026Z,1.50
2022-09-22T18:50:28.042Z,1.30
2022-09-22T18:52:56.647Z,1.73
2022-09-22T18:55:24.277Z,1.30
2022-09-22T18:57:51.817Z,1.27
2022-09-22T19:00:21.898Z,1.73
2022-09-22T19:02:50.255Z,1.33
2022-09-22T19:05:18.313Z,1.30
2022-09-22T19:07:47.655Z,1.90
2022-09-22T19:10:20.428Z,1.57
2022-09-22T19:12:47.970Z,1.53
2022-09-22T19:15:18.908Z,1.30
2022-09-22T19:17:49.571Z,1.70
2022-09-22T19:20:20.824Z,1.53
2022-09-22T19:22:49.262Z,1.53
2022-09-22T19:25:17.135Z,1.60
2022-09-22T19:27:44.702Z,1.23
2022-09-22T19:30:13.397Z,1.60
2022-09-22T19:32:41.319Z,1.70
2022-09-22T19:35:10.685Z,1.90
2022-09-22T19:37:38.322Z,1.27
2022-09-22T19:40:07.138Z,1.90
2022-09-22T19:42:39.979Z,1.77
2022-09-22T19:45:08.582Z,1.47
2022-09-22T19:47:36.292Z,1.67
2022-09-22T19:50:05.150Z,1.97
2022-09-22T19:52:34.833Z,1.67
2022-09-22T19:55:02.884Z,1.83
2022-09-22T19:57:31.779Z,1.30
2022-09-22T19:59:59.407Z,1.93
2022-09-22T20:02:26.985Z,1.40
2022-09-22T20:04:55.857Z,1.37
2022-09-22T20:07:27.684Z,1.60
2022-09-22T20:09:57.212Z,1.73
2022-09-22T20:12:24.731Z,1.20
2022-09-22T20:14:52.753Z,1.60
2022-09-22T20:17:20.352Z,1.33
2022-09-22T20:19:47.946Z,1.50
2022-09-22T20:22:22.678Z,1.63
2022-09-22T20:24:53.928Z,1.40
2022-09-22T20:27:25.268Z,1.70
2022-09-22T20:29:57.114Z,1.50
2022-09-22T20:32:25.756Z,1.57
2022-09-22T20:34:53.989Z,1.60
2022-09-22T20:37:21.530Z,1.67
2022-09-22T20:39:49.280Z,1.47
2022-09-22T20:42:17.454Z,1.53
2022-09-22T20:44:46.836Z,1.30
2022-09-22T20:47:15.827Z,1.70
2022-09-22T20:49:45.834Z,1.80
2022-09-22T20:52:16.719Z,1.83
2022-09-22T20:54:44.834Z,1.63
2022-09-22T20:57:12.402Z,1.50
2022-09-22T20:59:39.975Z,1.50
2022-09-22T21:02:10.836Z,1.30
2022-09-22T21:04:38.367Z,1.53
2022-09-22T21:07:05.997Z,1.30
2022-09-22T21:09:51.285Z,1.50
2022-09-22T21:12:18.902Z,1.37
2022-09-22T21:14:46.437Z,1.50
2022-09-22T21:17:15.534Z,1.60
2022-09-22T21:19:43.226Z,1.80
2022-09-22T21:22:10.820Z,1.73
2022-09-22T21:24:38.393Z,1.77
2022-09-22T21:27:06.430Z,1.60
2022-09-22T21:29:33.979Z,1.70
2022-09-22T21:32:02.588Z,1.50
2022-09-22T21:34:31.524Z,1.23
2022-09-22T21:36:59.084Z,1.80
2022-09-22T21:39:26.639Z,1.70
2022-09-22T21:41:54.161Z,1.67
2022-09-22T21:44:21.705Z,1.67
2022-09-22T21:46:49.691Z,1.83
2022-09-22T21:49:17.297Z,1.73
2022-09-22T21:51:47.327Z,1.57
2022-09-22T21:54:16.628Z,1.63
2022-09-22T21:56:44.199Z,1.80
2022-09-22T21:59:12.031Z,1.67
2022-09-22T22:01:41.745Z,1.80
2022-09-22T22:04:10.272Z,2.10
2022-09-22T22:06:40.411Z,1.60
2022-09-22T22:09:13.916Z,1.50
2022-09-22T22:11:43.348Z,1.70
2022-09-22T22:14:12.573Z,1.60
2022-09-22T22:16:42.099Z,1.70
2022-09-22T22:19:12.546Z,1.40
2022-09-22T22:21:40.896Z,1.57
2022-09-22T22:24:30.935Z,1.77
2022-09-22T22:27:01.110Z,1.60
2022-09-22T22:29:30.901Z,1.70
2022-09-22T22:31:58.685Z,1.63
2022-09-22T22:34:26.559Z,1.70
2022-09-22T22:36:54.825Z,1.83
2022-09-22T22:39:32.691Z,1.60
2022-09-22T22:42:00.288Z,1.60
2022-09-22T22:44:27.886Z,1.80
2022-09-22T22:46:56.129Z,1.83
2022-09-22T22:49:23.714Z,2.00
2022-09-22T22:51:52.719Z,1.60
2022-09-22T22:54:24.300Z,2.30
2022-09-22T22:56:51.894Z,1.90
2022-09-22T22:59:20.047Z,1.80
2022-09-22T23:01:48.242Z,1.80
2022-09-22T23:04:17.732Z,1.90
2022-09-22T23:06:48.120Z,1.90
2022-09-22T23:09:17.580Z,1.60
2022-09-22T23:11:47.633Z,1.80
2022-09-22T23:14:16.480Z,1.80
2022-09-22T23:16:46.274Z,1.73
2022-09-22T23:19:15.989Z,1.70
2022-09-22T23:21:46.460Z,1.80
2022-09-22T23:24:16.568Z,2.17
2022-09-22T23:26:46.322Z,1.90
2022-09-22T23:29:14.590Z,2.37
2022-09-22T23:31:42.616Z,1.90
2022-09-22T23:34:10.189Z,1.90
2022-09-22T23:36:39.562Z,2.40
2022-09-22T23:39:07.422Z,1.80
2022-09-22T23:41:37.215Z,1.87
2022-09-22T23:44:07.135Z,2.10
2022-09-22T23:46:35.254Z,2.00
2022-09-22T23:49:02.869Z,2.30
2022-09-22T23:51:30.622Z,2.03
2022-09-22T23:53:58.618Z,2.17
2022-09-22T23:56:26.307Z,2.37
2022-09-22T23:58:54.182Z,2.60
